Time;durP1;ratioP1;P1;durP2;ratioP2;P2;SDS_P1;SDS_P2;PMS_P1;PMS_P2;Temp;Humidity;BMP_temperature;BMP_pressure;BME280_temperature;BME280_humidity;BME280_pressure;Samples;Min_cycle;Max_cycle;Signal;HPM_P1;HPM_P2
2021/10/12 00:01:44;;;;;;;;;;;22.90;43.30;;;;;;1558613;74;1163;-69
2021/10/12 00:03:46;;;;;;;;;;;22.90;43.30;;;;;;1543830;76;776;-71
2021/10/12 00:05:48;;;;;;;;;;;22.90;43.30;;;;;;1564543;75;772;-69
2021/10/12 00:07:50;;;;;;;;;;;22.90;43.30;;;;;;1549202;75;801;-69
2021/10/12 00:09:52;;;;;;;;;;;23.00;43.30;;;;;;1555350;75;609;-68
2021/10/12 00:11:54;;;;;;;;;;;22.90;43.30;;;;;;1557442;74;1113;-70
2021/10/12 00:13:56;;;;;;;;;;;23.00;43.30;;;;;;1546847;75;1948;-70
2021/10/12 00:15:58;;;;;;;;;;;22.90;43.40;;;;;;1548740;75;727;-70
2021/10/12 00:18:00;;;;;;;;;;;22.90;43.40;;;;;;1546729;75;704;-70
2021/10/12 00:20:02;;;;;;;;;;;22.90;43.40;;;;;;1558227;75;654;-70
2021/10/12 00:22:03;;;;;;;;;;;22.90;43.40;;;;;;1547621;74;1161;-69
2021/10/12 00:24:05;;;;;;;;;;;22.90;43.40;;;;;;1558131;75;721;-71
2021/10/12 00:26:07;;;;;;;;;;;22.90;43.40;;;;;;1550549;75;676;-71
2021/10/12 00:28:09;;;;;;;;;;;22.90;43.40;;;;;;1555414;75;805;-71
2021/10/12 00:30:11;;;;;;;;;;;22.90;43.50;;;;;;1558088;75;1130;-71
2021/10/12 00:32:13;;;;;;;;;;;22.90;43.40;;;;;;1540635;75;741;-71
2021/10/12 00:34:15;;;;;;;;;;;23.00;43.50;;;;;;1553303;75;1957;-70
2021/10/12 00:36:17;;;;;;;;;;;22.90;43.40;;;;;;1552500;75;735;-71
2021/10/12 00:38:19;;;;;;;;;;;22.90;43.40;;;;;;1552281;75;723;-71
2021/10/12 00:40:20;;;;;;;;;;;22.90;43.40;;;;;;1545830;74;1127;-72
2021/10/12 00:42:22;;;;;;;;;;;22.90;43.50;;;;;;1554981;75;803;-72
2021/10/12 00:44:25;;;;;;;;;;;23.00;43.50;;;;;;1547544;75;740;-71
2021/10/12 00:46:27;;;;;;;;;;;22.90;43.50;;;;;;1549023;75;785;-71
2021/10/12 00:48:29;;;;;;;;;;;22.90;43.50;;;;;;1561375;75;815;-71
2021/10/12 00:50:33;;;;;;;;;;;22.90;43.50;;;;;;1552267;75;1136;-71
2021/10/12 00:52:35;;;;;;;;;;;22.90;43.50;;;;;;1559736;75;708;-71
2021/10/12 00:54:37;;;;;;;;;;;22.90;43.50;;;;;;1549157;75;1925;-71
2021/10/12 00:56:39;;;;;;;;;;;22.90;43.60;;;;;;1563857;75;767;-71
2021/10/12 00:58:41;;;;;;;;;;;22.90;43.50;;;;;;1551668;75;679;-71
2021/10/12 01:00:43;;;;;;;;;;;22.90;43.50;;;;;;1558380;75;1179;-71
2021/10/12 01:02:45;;;;;;;;;;;22.90;43.50;;;;;;1557859;75;756;-73
2021/10/12 01:04:47;;;;;;;;;;;22.90;43.60;;;;;;1543154;75;728;-73
2021/10/12 01:06:48;;;;;;;;;;;22.90;43.60;;;;;;1555949;75;780;-75
2021/10/12 01:08:50;;;;;;;;;;;22.90;43.60;;;;;;1544396;75;634;-71
2021/10/12 01:10:52;;;;;;;;;;;22.90;43.60;;;;;;1553326;75;1136;-74
2021/10/12 01:12:54;;;;;;;;;;;22.90;43.70;;;;;;1540294;75;757;-72
2021/10/12 01:14:56;;;;;;;;;;;22.90;43.70;;;;;;1552134;75;1936;-72
2021/10/12 01:16:58;;;;;;;;;;;22.90;43.70;;;;;;1551378;75;741;-72
2021/10/12 01:19:01;;;;;;;;;;;22.90;43.70;;;;;;1561590;75;787;-72
2021/10/12 01:21:03;;;;;;;;;;;22.90;43.60;;;;;;1542462;75;1106;-72
2021/10/12 01:23:05;;;;;;;;;;;22.90;43.70;;;;;;1545562;75;755;-71
2021/10/12 01:25:07;;;;;;;;;;;22.90;43.60;;;;;;1559754;75;762;-71
2021/10/12 01:27:09;;;;;;;;;;;22.90;43.70;;;;;;1543519;75;729;-72
2021/10/12 01:29:11;;;;;;;;;;;22.90;43.70;;;;;;1558014;75;733;-71
2021/10/12 01:31:26;;;;;;;;;;;22.90;43.70;;;;;;1559447;75;1157;-70
2021/10/12 01:33:28;;;;;;;;;;;22.90;43.70;;;;;;1546746;75;701;-71
2021/10/12 01:35:30;;;;;;;;;;;22.90;43.70;;;;;;1558393;75;1934;-71
2021/10/12 01:37:32;;;;;;;;;;;22.90;43.70;;;;;;1536423;75;706;-73
2021/10/12 01:39:33;;;;;;;;;;;22.90;43.80;;;;;;1561300;75;732;-73
2021/10/12 01:41:35;;;;;;;;;;;22.90;43.90;;;;;;1551814;75;1119;-72
2021/10/12 01:43:38;;;;;;;;;;;22.90;43.90;;;;;;1546999;75;578;-73
2021/10/12 01:45:40;;;;;;;;;;;22.90;44.00;;;;;;1562161;75;689;-73
2021/10/12 01:47:42;;;;;;;;;;;22.90;44.00;;;;;;1542290;75;729;-74
2021/10/12 01:49:43;;;;;;;;;;;22.90;44.00;;;;;;1559268;75;711;-70
2021/10/12 01:51:45;;;;;;;;;;;22.90;44.00;;;;;;1568757;73;220953;-74
2021/10/12 01:53:47;;;;;;;;;;;22.90;44.10;;;;;;1614526;73;671;-74
2021/10/12 01:55:49;;;;;;;;;;;22.90;44.10;;;;;;1621193;73;1939;-74
2021/10/12 01:57:51;;;;;;;;;;;22.90;44.10;;;;;;1602963;73;1217;-74
2021/10/12 01:59:53;;;;;;;;;;;22.90;44.10;;;;;;1586240;74;764;-74
2021/10/12 02:01:55;;;;;;;;;;;22.90;44.20;;;;;;1592737;74;713;-73
2021/10/12 02:03:57;;;;;;;;;;;22.90;44.20;;;;;;1584990;71;223930;-58
2021/10/12 02:05:59;;;;;;;;;;;22.90;44.10;;;;;;1547300;76;1112;-59
2021/10/12 02:08:01;;;;;;;;;;;22.90;44.20;;;;;;1549529;75;769;-58
2021/10/12 02:10:03;;;;;;;;;;;22.90;44.20;;;;;;1542402;75;717;-59
2021/10/12 02:12:05;;;;;;;;;;;22.90;44.20;;;;;;1552176;76;656;-60
2021/10/12 02:14:07;;;;;;;;;;;22.90;44.10;;;;;;1553481;75;1149;-60
2021/10/12 02:16:09;;;;;;;;;;;22.90;44.20;;;;;;1550999;76;1944;-61
2021/10/12 02:18:11;;;;;;;;;;;22.80;44.10;;;;;;1540955;76;826;-60
2021/10/12 02:20:13;;;;;;;;;;;22.90;44.30;;;;;;1539388;76;850;-60
2021/10/12 02:22:15;;;;;;;;;;;22.80;44.10;;;;;;1546111;76;727;-62
2021/10/12 02:24:16;;;;;;;;;;;22.90;44.30;;;;;;1540463;75;1101;-63
2021/10/12 02:26:18;;;;;;;;;;;22.90;44.30;;;;;;1533939;76;744;-62
2021/10/12 02:28:20;;;;;;;;;;;22.90;44.30;;;;;;1538869;76;800;-61
2021/10/12 02:30:22;;;;;;;;;;;22.80;44.10;;;;;;1554776;76;748;-61
2021/10/12 02:32:24;;;;;;;;;;;22.80;44.10;;;;;;1550335;75;714;-60
2021/10/12 02:34:26;;;;;;;;;;;22.90;44.20;;;;;;1542782;76;1956;-60
2021/10/12 02:36:28;;;;;;;;;;;22.90;44.20;;;;;;1543232;76;734;-60
2021/10/12 02:38:29;;;;;;;;;;;22.90;44.10;;;;;;1543335;76;777;-61
2021/10/12 02:40:31;;;;;;;;;;;23.00;44.10;;;;;;1535547;76;713;-62
2021/10/12 02:42:33;;;;;;;;;;;23.00;44.00;;;;;;1530459;76;768;-61
2021/10/12 02:44:35;;;;;;;;;;;23.10;44.00;;;;;;1551021;76;1100;-60
2021/10/12 02:46:37;;;;;;;;;;;23.20;43.80;;;;;;1539410;76;782;-59
2021/10/12 02:48:39;;;;;;;;;;;23.20;43.60;;;;;;1532459;76;823;-61
2021/10/12 02:50:43;;;;;;;;;;;23.20;43.40;;;;;;1543517;76;653;-60
2021/10/12 02:52:44;;;;;;;;;;;23.30;43.40;;;;;;1544529;76;1512;-61
2021/10/12 02:54:46;;;;;;;;;;;23.30;43.40;;;;;;1543469;76;1948;-62
2021/10/12 02:56:48;;;;;;;;;;;23.20;43.40;;;;;;1533225;76;738;-62
2021/10/12 02:58:50;;;;;;;;;;;23.20;43.60;;;;;;1552272;76;712;-62
2021/10/12 03:00:52;;;;;;;;;;;23.10;43.70;;;;;;1551186;76;713;-62
2021/10/12 03:02:54;;;;;;;;;;;23.10;43.90;;;;;;1545962;76;740;-60
2021/10/12 03:04:55;;;;;;;;;;;23.00;43.90;;;;;;1552367;76;1165;-60
2021/10/12 03:06:57;;;;;;;;;;;23.00;44.00;;;;;;1532547;76;661;-61
2021/10/12 03:08:59;;;;;;;;;;;23.00;44.20;;;;;;1532151;76;734;-60
2021/10/12 03:11:01;;;;;;;;;;;22.90;44.30;;;;;;1539888;75;755;-62
2021/10/12 03:13:03;;;;;;;;;;;22.90;44.40;;;;;;1544203;76;808;-60
2021/10/12 03:15:05;;;;;;;;;;;22.90;44.40;;;;;;1537667;75;1948;-61
2021/10/12 03:17:07;;;;;;;;;;;22.90;44.50;;;;;;1548774;76;700;-61
2021/10/12 03:19:11;;;;;;;;;;;22.90;44.60;;;;;;1554402;76;725;-63
2021/10/12 03:21:14;;;;;;;;;;;22.90;44.70;;;;;;1529946;75;1675;-60
2021/10/12 03:23:16;;;;;;;;;;;22.90;44.70;;;;;;1542103;75;777;-62
2021/10/12 03:25:18;;;;;;;;;;;22.90;44.70;;;;;;1526834;76;1140;-62
2021/10/12 03:27:20;;;;;;;;;;;22.90;44.60;;;;;;1541415;75;785;-60
2021/10/12 03:29:22;;;;;;;;;;;22.80;44.40;;;;;;1554165;76;758;-61
2021/10/12 03:31:24;;;;;;;;;;;22.90;44.50;;;;;;1537971;76;689;-61
2021/10/12 03:33:25;;;;;;;;;;;22.90;44.40;;;;;;1527816;75;640;-61
2021/10/12 03:35:36;;;;;;;;;;;22.90;44.50;;;;;;1539444;76;1955;-60
2021/10/12 03:37:34;;;;;;;;;;;22.90;44.60;;;;;;1546863;75;1625;-60
2021/10/12 03:39:36;;;;;;;;;;;22.90;44.60;;;;;;1549755;75;734;-59
2021/10/12 03:41:37;;;;;;;;;;;22.90;44.50;;;;;;1543193;76;794;-60
2021/10/12 03:43:39;;;;;;;;;;;23.00;44.50;;;;;;1535306;76;755;-62
2021/10/12 03:45:41;;;;;;;;;;;22.90;44.50;;;;;;1549573;76;1125;-62
2021/10/12 03:47:43;;;;;;;;;;;22.90;44.50;;;;;;1553190;76;735;-62
2021/10/12 03:49:45;;;;;;;;;;;22.90;44.50;;;;;;1545466;75;671;-60
2021/10/12 03:51:47;;;;;;;;;;;23.00;44.40;;;;;;1550567;76;653;-59
2021/10/12 03:53:49;;;;;;;;;;;23.00;44.30;;;;;;1533807;76;718;-59
2021/10/12 03:55:51;;;;;;;;;;;23.00;44.30;;;;;;1543590;75;1964;-59
2021/10/12 03:57:52;;;;;;;;;;;23.10;44.30;;;;;;1550507;76;743;-62
2021/10/12 03:59:54;;;;;;;;;;;23.10;44.00;;;;;;1555082;76;718;-61
2021/10/12 04:01:56;;;;;;;;;;;23.20;43.80;;;;;;1539805;76;725;-61
2021/10/12 04:03:59;;;;;;;;;;;23.40;43.60;;;;;;1536148;76;788;-61
2021/10/12 04:06:01;;;;;;;;;;;23.30;43.40;;;;;;1550745;75;828;-61
2021/10/12 04:08:03;;;;;;;;;;;23.50;43.20;;;;;;1559813;76;746;-60
2021/10/12 04:10:05;;;;;;;;;;;23.50;43.00;;;;;;1536449;75;761;-61
2021/10/12 04:12:07;;;;;;;;;;;23.60;42.80;;;;;;1527386;75;630;-62
2021/10/12 04:14:09;;;;;;;;;;;23.70;42.80;;;;;;1550692;76;1133;-61
2021/10/12 04:16:11;;;;;;;;;;;23.70;42.80;;;;;;1553534;75;1936;-61
2021/10/12 04:18:13;;;;;;;;;;;23.60;42.60;;;;;;1547915;76;807;-61
2021/10/12 04:20:14;;;;;;;;;;;23.70;42.60;;;;;;1546914;76;698;-60
2021/10/12 04:22:16;;;;;;;;;;;23.80;42.50;;;;;;1546870;76;733;-60
2021/10/12 04:24:18;;;;;;;;;;;23.70;42.40;;;;;;1544978;76;1126;-61
2021/10/12 04:26:23;;;;;;;;;;;23.80;42.30;;;;;;1539617;76;776;-61
2021/10/12 04:28:24;;;;;;;;;;;23.90;42.30;;;;;;1527993;76;1483;-61
2021/10/12 04:30:26;;;;;;;;;;;23.90;42.20;;;;;;1552222;76;761;-61
2021/10/12 04:32:28;;;;;;;;;;;23.80;42.10;;;;;;1530484;76;698;-62
2021/10/12 04:34:30;;;;;;;;;;;23.80;42.10;;;;;;1551321;76;1251;-61
2021/10/12 04:36:32;;;;;;;;;;;23.80;42.20;;;;;;1541789;76;1950;-61
2021/10/12 04:38:34;;;;;;;;;;;23.80;42.20;;;;;;1533671;76;681;-60
2021/10/12 04:40:35;;;;;;;;;;;23.70;42.20;;;;;;1539488;75;799;-61
2021/10/12 04:42:37;;;;;;;;;;;23.70;42.30;;;;;;1547920;76;768;-61
2021/10/12 04:44:39;;;;;;;;;;;23.70;42.30;;;;;;1539829;76;1140;-62
2021/10/12 04:46:41;;;;;;;;;;;23.70;42.30;;;;;;1544796;76;754;-60
2021/10/12 04:48:43;;;;;;;;;;;23.60;42.30;;;;;;1526553;76;749;-61
2021/10/12 04:50:45;;;;;;;;;;;23.70;42.30;;;;;;1539559;76;759;-60
2021/10/12 04:52:47;;;;;;;;;;;23.60;42.20;;;;;;1550124;76;711;-61
2021/10/12 04:54:49;;;;;;;;;;;23.60;42.30;;;;;;1534674;76;1121;-61
2021/10/12 04:56:50;;;;;;;;;;;23.70;42.40;;;;;;1541353;76;1945;-60
2021/10/12 04:58:52;;;;;;;;;;;23.70;42.50;;;;;;1538920;75;758;-62
2021/10/12 05:00:54;;;;;;;;;;;23.60;42.70;;;;;;1550221;76;793;-62
2021/10/12 05:02:56;;;;;;;;;;;23.50;42.70;;;;;;1532995;76;792;-64
2021/10/12 05:04:58;;;;;;;;;;;23.50;42.90;;;;;;1557224;76;1243;-63
2021/10/12 05:07:00;;;;;;;;;;;23.50;42.70;;;;;;1532600;76;809;-63
2021/10/12 05:09:02;;;;;;;;;;;23.60;42.50;;;;;;1555862;75;783;-62
2021/10/12 05:11:03;;;;;;;;;;;23.50;42.30;;;;;;1537800;76;659;-62
2021/10/12 05:13:06;;;;;;;;;;;23.50;42.30;;;;;;1526627;76;732;-63
2021/10/12 05:15:08;;;;;;;;;;;23.40;42.10;;;;;;1548052;75;1126;-61
2021/10/12 05:17:23;;;;;;;;;;;23.40;42.10;;;;;;1534372;76;1932;-61
2021/10/12 05:19:19;;;;;;;;;;;23.40;42.10;;;;;;1525527;76;1521;-61
2021/10/12 05:21:21;;;;;;;;;;;23.50;42.20;;;;;;1514118;76;761;-60
2021/10/12 05:23:23;;;;;;;;;;;23.50;42.20;;;;;;1537822;75;735;-61
2021/10/12 05:25:25;;;;;;;;;;;23.50;42.10;;;;;;1549410;75;1129;-62
2021/10/12 05:27:27;;;;;;;;;;;23.60;41.90;;;;;;1546527;76;905;-62
2021/10/12 05:29:29;;;;;;;;;;;23.50;41.80;;;;;;1549802;76;757;-61
2021/10/12 05:31:30;;;;;;;;;;;23.40;41.80;;;;;;1552701;76;737;-63
2021/10/12 05:33:33;;;;;;;;;;;23.40;41.90;;;;;;1549352;75;659;-62
2021/10/12 05:35:35;;;;;;;;;;;23.40;41.90;;;;;;1543825;75;1981;-62
2021/10/12 05:37:37;;;;;;;;;;;23.40;41.90;;;;;;1541849;76;766;-60
2021/10/12 05:39:39;;;;;;;;;;;23.40;41.90;;;;;;1549268;76;749;-62
2021/10/12 05:41:41;;;;;;;;;;;23.40;41.80;;;;;;1557049;76;811;-61
2021/10/12 05:43:43;;;;;;;;;;;23.40;41.90;;;;;;1546477;76;699;-63
2021/10/12 05:45:45;;;;;;;;;;;23.30;41.80;;;;;;1538901;76;1111;-61
2021/10/12 05:47:46;;;;;;;;;;;23.30;41.80;;;;;;1545879;76;770;-62
2021/10/12 05:49:48;;;;;;;;;;;23.30;41.90;;;;;;1554097;76;1061;-63
2021/10/12 05:51:50;;;;;;;;;;;23.30;41.80;;;;;;1516619;75;691;-61
2021/10/12 05:53:54;;;;;;;;;;;23.20;41.70;;;;;;1547512;76;767;-61
2021/10/12 05:56:01;;;;;;;;;;;23.20;41.70;;;;;;1543927;75;1935;-63
2021/10/12 05:58:11;;;;;;;;;;;23.20;41.70;;;;;;1546646;75;1631;-63
2021/10/12 06:00:12;;;;;;;;;;;23.20;41.70;;;;;;1550361;76;1436;-63
2021/10/12 06:02:14;;;;;;;;;;;23.20;41.70;;;;;;1525155;76;742;-63
2021/10/12 06:04:15;;;;;;;;;;;23.20;41.70;;;;;;1525186;76;1185;-62
2021/10/12 06:06:17;;;;;;;;;;;23.20;41.80;;;;;;1540712;76;788;-62
2021/10/12 06:08:19;;;;;;;;;;;23.20;41.70;;;;;;1539568;76;818;-62
2021/10/12 06:10:21;;;;;;;;;;;23.10;41.70;;;;;;1542749;76;739;-62
2021/10/12 06:12:23;;;;;;;;;;;23.20;41.70;;;;;;1544024;76;716;-62
2021/10/12 06:14:25;;;;;;;;;;;23.20;41.70;;;;;;1538642;76;1212;-62
2021/10/12 06:16:27;;;;;;;;;;;23.10;41.40;;;;;;1544041;76;1943;-62
2021/10/12 06:18:29;;;;;;;;;;;23.20;41.00;;;;;;1537724;76;749;-62
2021/10/12 06:20:31;;;;;;;;;;;23.10;40.70;;;;;;1541499;76;732;-62
2021/10/12 06:22:32;;;;;;;;;;;23.10;40.50;;;;;;1534839;76;730;-62
2021/10/12 06:24:34;;;;;;;;;;;23.00;40.10;;;;;;1536831;76;1129;-62
2021/10/12 06:26:38;;;;;;;;;;;23.00;39.90;;;;;;1535937;76;722;-62
2021/10/12 06:28:40;;;;;;;;;;;23.00;39.70;;;;;;1539468;76;2001;-62
2021/10/12 06:30:42;;;;;;;;;;;23.00;39.70;;;;;;1535795;76;689;-61
2021/10/12 06:32:44;;;;;;;;;;;22.90;39.60;;;;;;1539317;76;710;-62
2021/10/12 06:34:46;;;;;;;;;;;22.90;39.50;;;;;;1543559;76;1105;-62
2021/10/12 06:36:48;;;;;;;;;;;22.90;39.50;;;;;;1537749;76;1945;-62
2021/10/12 06:38:49;;;;;;;;;;;22.90;39.50;;;;;;1538040;76;736;-62
2021/10/12 06:40:51;;;;;;;;;;;22.80;39.20;;;;;;1538060;75;729;-61
2021/10/12 06:42:53;;;;;;;;;;;22.90;39.30;;;;;;1536341;76;766;-60
2021/10/12 06:44:55;;;;;;;;;;;22.80;39.20;;;;;;1537451;76;1157;-62
2021/10/12 06:46:57;;;;;;;;;;;22.80;39.20;;;;;;1534041;76;667;-62
2021/10/12 06:48:59;;;;;;;;;;;22.80;39.30;;;;;;1538129;76;748;-62
2021/10/12 06:51:01;;;;;;;;;;;22.70;39.20;;;;;;1536286;76;773;-62
2021/10/12 06:53:03;;;;;;;;;;;22.70;39.30;;;;;;1539886;76;842;-61
2021/10/12 06:55:07;;;;;;;;;;;22.70;39.20;;;;;;1537742;76;1172;-61
2021/10/12 06:57:13;;;;;;;;;;;22.70;39.10;;;;;;1537977;76;1926;-62
2021/10/12 06:59:12;;;;;;;;;;;22.70;39.00;;;;;;1537627;76;1206;-60
2021/10/12 07:01:14;;;;;;;;;;;22.60;38.90;;;;;;1534888;76;706;-60
2021/10/12 07:03:16;;;;;;;;;;;22.70;39.00;;;;;;1533257;76;730;-63
2021/10/12 07:05:18;;;;;;;;;;;22.60;38.80;;;;;;1536831;76;1172;-63
2021/10/12 07:07:20;;;;;;;;;;;22.60;38.60;;;;;;1527901;75;721;-63
2021/10/12 07:09:22;;;;;;;;;;;22.60;38.50;;;;;;1538348;76;731;-63
2021/10/12 07:11:24;;;;;;;;;;;22.60;38.60;;;;;;1536422;76;782;-63
2021/10/12 07:13:29;;;;;;;;;;;22.50;38.60;;;;;;1541500;76;776;-63
2021/10/12 07:15:31;;;;;;;;;;;22.50;38.60;;;;;;1555100;75;1204;-63
2021/10/12 07:17:33;;;;;;;;;;;22.50;38.60;;;;;;1532475;76;1940;-62
2021/10/12 07:19:35;;;;;;;;;;;22.50;38.60;;;;;;1542021;76;838;-67
2021/10/12 07:21:37;;;;;;;;;;;22.50;38.70;;;;;;1541919;76;788;-63
2021/10/12 07:23:39;;;;;;;;;;;22.50;38.60;;;;;;1538113;76;752;-63
2021/10/12 07:25:41;;;;;;;;;;;22.50;38.80;;;;;;1534300;76;1094;-62
2021/10/12 07:27:42;;;;;;;;;;;22.50;38.90;;;;;;1540396;76;684;-62
2021/10/12 07:29:50;;;;;;;;;;;22.40;38.80;;;;;;1534400;76;795;-62
2021/10/12 07:31:48;;;;;;;;;;;22.40;38.80;;;;;;1537170;76;1687;-63
2021/10/12 07:33:50;;;;;;;;;;;22.30;38.80;;;;;;1538099;76;724;-62
2021/10/12 07:35:52;;;;;;;;;;;22.40;38.90;;;;;;1537376;76;1124;-63
2021/10/12 07:37:55;;;;;;;;;;;22.30;38.90;;;;;;1538938;76;1951;-63
2021/10/12 07:39:57;;;;;;;;;;;22.30;38.90;;;;;;1540295;76;790;-62
2021/10/12 07:42:00;;;;;;;;;;;22.30;38.90;;;;;;1538592;75;730;-62
2021/10/12 07:44:02;;;;;;;;;;;22.30;39.00;;;;;;1539401;76;1141;-62
2021/10/12 07:46:03;;;;;;;;;;;22.30;38.90;;;;;;1535623;76;679;-63
2021/10/12 07:48:05;;;;;;;;;;;22.30;39.00;;;;;;1535633;76;729;-63
2021/10/12 07:50:07;;;;;;;;;;;22.30;39.00;;;;;;1557076;76;778;-62
2021/10/12 07:52:10;;;;;;;;;;;22.20;38.90;;;;;;1562036;71;219400;-73
2021/10/12 07:54:16;;;;;;;;;;;22.20;38.90;;;;;;1566370;74;948;-71
2021/10/12 07:56:35;;;;;;;;;;;22.30;39.10;;;;;;1564504;74;991;-71
2021/10/12 07:58:21;;;;;;;;;;;22.20;38.90;;;;;;1527501;76;1648;-69
2021/10/12 08:00:25;;;;;;;;;;;22.20;39.00;;;;;;1539544;75;772;-71
2021/10/12 08:02:27;;;;;;;;;;;22.10;39.00;;;;;;1565246;74;1233;-72
2021/10/12 08:04:29;;;;;;;;;;;22.10;39.00;;;;;;1568652;74;722;-70
2021/10/12 08:06:31;;;;;;;;;;;22.10;39.10;;;;;;1566809;74;753;-70
2021/10/12 08:08:33;;;;;;;;;;;22.10;39.20;;;;;;1566030;75;749;-70
2021/10/12 08:10:36;;;;;;;;;;;22.10;39.20;;;;;;1567778;74;751;-71
2021/10/12 08:12:39;;;;;;;;;;;22.10;39.20;;;;;;1565724;75;1116;-71
2021/10/12 08:14:44;;;;;;;;;;;22.10;39.20;;;;;;1563979;74;766;-70
2021/10/12 08:16:44;;;;;;;;;;;22.10;39.20;;;;;;1565492;74;1927;-70
2021/10/12 08:18:46;;;;;;;;;;;22.10;39.20;;;;;;1566466;74;1077;-72
2021/10/12 08:20:48;;;;;;;;;;;22.10;39.30;;;;;;1570228;74;1122;-70
2021/10/12 08:22:50;;;;;;;;;;;22.10;39.30;;;;;;1573185;74;812;-70
2021/10/12 08:24:52;;;;;;;;;;;22.10;39.40;;;;;;1571333;74;763;-71
2021/10/12 08:26:54;;;;;;;;;;;22.00;39.30;;;;;;1567900;74;752;-72
2021/10/12 08:28:56;;;;;;;;;;;22.10;39.40;;;;;;1566050;75;775;-74
2021/10/12 08:30:57;;;;;;;;;;;22.10;39.40;;;;;;1565765;74;1095;-71
2021/10/12 08:32:59;;;;;;;;;;;22.00;39.30;;;;;;1565789;74;802;-74
2021/10/12 08:35:01;;;;;;;;;;;22.10;39.40;;;;;;1564419;75;724;-71
2021/10/12 08:37:03;;;;;;;;;;;22.00;39.30;;;;;;1569700;75;1925;-71
2021/10/12 08:39:06;;;;;;;;;;;22.00;39.40;;;;;;1573831;74;692;-71
2021/10/12 08:41:08;;;;;;;;;;;22.00;39.40;;;;;;1559283;75;1109;-71
2021/10/12 08:43:10;;;;;;;;;;;22.00;39.40;;;;;;1562447;75;678;-72
2021/10/12 08:45:12;;;;;;;;;;;22.00;39.40;;;;;;1566488;75;804;-71
2021/10/12 08:47:14;;;;;;;;;;;22.00;39.40;;;;;;1566016;75;732;-70
2021/10/12 08:49:16;;;;;;;;;;;22.00;39.50;;;;;;1566401;75;787;-69
2021/10/12 08:51:18;;;;;;;;;;;22.00;39.50;;;;;;1565964;74;1160;-71
2021/10/12 08:53:20;;;;;;;;;;;21.90;39.50;;;;;;1558108;75;773;-71
2021/10/12 08:55:22;;;;;;;;;;;21.90;39.60;;;;;;1566086;75;681;-71
2021/10/12 08:57:30;;;;;;;;;;;21.90;39.60;;;;;;1569908;74;1935;-71
2021/10/12 08:59:32;;;;;;;;;;;22.00;39.50;;;;;;1567260;75;819;-72
2021/10/12 09:01:35;;;;;;;;;;;22.00;39.40;;;;;;1562604;74;1148;-74
2021/10/12 09:03:46;;;;;;;;;;;22.00;39.40;;;;;;1557572;75;1913;-71
2021/10/12 09:05:55;;;;;;;;;;;22.00;39.40;;;;;;1567320;75;2001;-71
2021/10/12 09:07:58;;;;;;;;;;;21.90;39.50;;;;;;1566037;74;731;-72
2021/10/12 09:10:00;;;;;;;;;;;21.90;39.50;;;;;;1577058;74;770;-70
2021/10/12 09:12:02;;;;;;;;;;;21.90;39.50;;;;;;1564647;74;1182;-71
2021/10/12 09:14:05;;;;;;;;;;;21.90;39.60;;;;;;1576452;74;794;-71
2021/10/12 09:16:07;;;;;;;;;;;21.90;39.60;;;;;;1566979;75;680;-71
2021/10/12 09:18:09;;;;;;;;;;;21.90;39.60;;;;;;1567159;74;1919;-72
2021/10/12 09:20:12;;;;;;;;;;;21.90;39.70;;;;;;1579931;74;733;-74
2021/10/12 09:22:14;;;;;;;;;;;21.80;39.60;;;;;;1560087;74;1117;-70
2021/10/12 09:24:17;;;;;;;;;;;21.80;39.60;;;;;;1556488;75;816;-70
2021/10/12 09:26:21;;;;;;;;;;;21.90;39.80;;;;;;1566329;74;754;-71
2021/10/12 09:28:24;;;;;;;;;;;21.80;39.60;;;;;;1565408;75;1839;-71
2021/10/12 09:30:28;;;;;;;;;;;21.90;39.80;;;;;;1554622;75;1444;-70
2021/10/12 09:32:31;;;;;;;;;;;21.90;39.80;;;;;;1565924;74;1856;-73
2021/10/12 09:34:35;;;;;;;;;;;21.90;39.80;;;;;;1565707;75;1785;-71
2021/10/12 09:36:37;;;;;;;;;;;21.80;39.70;;;;;;1565698;75;678;-70
2021/10/12 09:38:45;;;;;;;;;;;21.90;39.80;;;;;;1571112;74;1932;-71
2021/10/12 09:40:47;;;;;;;;;;;21.90;39.80;;;;;;1565868;75;1142;-70
2021/10/12 09:42:49;;;;;;;;;;;21.90;39.90;;;;;;1567056;75;748;-71
2021/10/12 09:44:52;;;;;;;;;;;21.90;39.90;;;;;;1569953;75;799;-71
2021/10/12 09:46:54;;;;;;;;;;;21.90;39.90;;;;;;1567364;75;776;-70
2021/10/12 09:48:55;;;;;;;;;;;21.90;39.90;;;;;;1562643;74;795;-71
2021/10/12 09:51:10;;;;;;;;;;;21.90;40.00;;;;;;1542260;76;1133;-72
2021/10/12 09:53:12;;;;;;;;;;;21.90;39.90;;;;;;1566459;75;742;-73
2021/10/12 09:55:15;;;;;;;;;;;21.80;39.80;;;;;;1551081;75;1297;-73
2021/10/12 09:57:17;;;;;;;;;;;21.80;39.80;;;;;;1572544;74;1911;-71
2021/10/12 09:59:19;;;;;;;;;;;21.80;39.80;;;;;;1569376;74;806;-70
2021/10/12 10:01:21;;;;;;;;;;;21.80;39.80;;;;;;1566287;75;1140;-70
2021/10/12 10:03:23;;;;;;;;;;;21.80;39.80;;;;;;1567265;75;764;-70
2021/10/12 10:05:25;;;;;;;;;;;21.80;39.80;;;;;;1571596;74;835;-70
2021/10/12 10:07:31;;;;;;;;;;;21.90;40.00;;;;;;1566436;74;813;-70
2021/10/12 10:09:36;;;;;;;;;;;21.80;39.90;;;;;;1565964;74;899;-74
2021/10/12 10:11:45;;;;;;;;;;;21.90;40.00;;;;;;1566139;74;1159;-71
2021/10/12 10:13:44;;;;;;;;;;;21.80;39.80;;;;;;1564103;74;1249;-73
2021/10/12 10:15:46;;;;;;;;;;;21.90;39.90;;;;;;1567061;74;791;-68
2021/10/12 10:17:48;;;;;;;;;;;21.80;39.80;;;;;;1567482;74;1930;-71
2021/10/12 10:19:50;;;;;;;;;;;21.80;39.60;;;;;;1569905;74;800;-71
2021/10/12 10:21:52;;;;;;;;;;;21.80;39.60;;;;;;1566130;74;1079;-71
2021/10/12 10:24:31;;;;;;;;;;;21.90;39.70;;;;;;1560107;74;789;-73
2021/10/12 10:26:24;;;;;;;;;;;21.90;39.90;;;;;;1545130;74;1347;-73
2021/10/12 10:28:26;;;;;;;;;;;21.80;40.00;;;;;;1504850;78;1003;-72
2021/10/12 10:30:29;;;;;;;;;;;21.80;40.20;;;;;;1532578;74;876;-73
2021/10/12 10:32:30;;;;;;;;;;;21.80;40.40;;;;;;1566079;74;1124;-73
2021/10/12 10:34:33;;;;;;;;;;;21.80;40.40;;;;;;1541204;75;1096;-73
2021/10/12 10:36:35;;;;;;;;;;;21.80;40.50;;;;;;1565231;74;706;-72
2021/10/12 10:38:42;;;;;;;;;;;21.90;40.70;;;;;;1566011;74;1930;-73
2021/10/12 10:40:41;;;;;;;;;;;21.90;40.70;;;;;;1565493;74;1486;-73
2021/10/12 10:42:44;;;;;;;;;;;21.80;40.70;;;;;;1575293;74;1067;-76
2021/10/12 10:45:03;;;;;;;;;;;21.90;40.90;;;;;;1571032;75;706;-71
2021/10/12 10:47:05;;;;;;;;;;;21.80;40.80;;;;;;1571009;75;815;-73
2021/10/12 10:49:11;;;;;;;;;;;21.80;40.90;;;;;;1570899;75;806;-75
2021/10/12 10:51:20;;;;;;;;;;;21.80;41.00;;;;;;1565922;75;1119;-72
2021/10/12 10:53:38;;;;;;;;;;;21.90;41.20;;;;;;1565139;75;744;-72
2021/10/12 10:55:41;;;;;;;;;;;21.90;41.30;;;;;;1563417;75;685;-74
2021/10/12 10:57:44;;;;;;;;;;;21.90;41.30;;;;;;1566212;75;1942;-73
2021/10/12 10:59:49;;;;;;;;;;;21.90;41.40;;;;;;1562562;75;1119;-73
2021/10/12 11:01:55;;;;;;;;;;;21.90;41.50;;;;;;1566018;75;1139;-73
2021/10/12 11:03:55;;;;;;;;;;;21.90;41.50;;;;;;1565175;74;1185;-72
2021/10/12 11:05:57;;;;;;;;;;;21.90;41.50;;;;;;1561997;75;827;-72
2021/10/12 11:08:12;;;;;;;;;;;22.00;41.60;;;;;;1566717;75;707;-72
2021/10/12 11:10:14;;;;;;;;;;;21.90;41.60;;;;;;1569970;74;801;-73
2021/10/12 11:12:18;;;;;;;;;;;22.00;41.60;;;;;;1541181;75;1184;-72
2021/10/12 11:14:22;;;;;;;;;;;21.90;41.50;;;;;;1564267;74;770;-76
2021/10/12 11:16:24;;;;;;;;;;;22.00;41.60;;;;;;1564728;74;1828;-73
2021/10/12 11:18:26;;;;;;;;;;;22.00;41.60;;;;;;1566462;74;1936;-69
2021/10/12 11:20:28;;;;;;;;;;;22.00;41.70;;;;;;1567913;75;780;-73
2021/10/12 11:22:29;;;;;;;;;;;21.90;41.70;;;;;;1539937;75;1179;-72
2021/10/12 11:24:31;;;;;;;;;;;21.90;41.80;;;;;;1568041;75;762;-77
2021/10/12 11:26:33;;;;;;;;;;;22.00;41.70;;;;;;1557081;75;833;-73
2021/10/12 11:28:36;;;;;;;;;;;22.00;41.70;;;;;;1566767;75;743;-73
2021/10/12 11:30:38;;;;;;;;;;;22.00;41.80;;;;;;1565744;75;824;-73
2021/10/12 11:32:40;;;;;;;;;;;22.00;41.70;;;;;;1551684;75;1079;-73
2021/10/12 11:34:42;;;;;;;;;;;22.00;41.70;;;;;;1565975;75;833;-73
2021/10/12 11:36:44;;;;;;;;;;;22.00;41.70;;;;;;1566023;75;773;-73
2021/10/12 11:38:56;;;;;;;;;;;22.00;41.80;;;;;;1566666;74;1938;-73
2021/10/12 11:40:58;;;;;;;;;;;22.00;41.80;;;;;;1559780;75;1113;-73
2021/10/12 11:43:01;;;;;;;;;;;22.00;41.80;;;;;;1570212;75;796;-73
2021/10/12 11:45:03;;;;;;;;;;;22.00;41.80;;;;;;1562463;74;779;-73
2021/10/12 11:47:05;;;;;;;;;;;22.00;41.70;;;;;;1566185;75;730;-73
2021/10/12 11:49:11;;;;;;;;;;;22.00;41.70;;;;;;1567430;75;697;-73
2021/10/12 11:51:14;;;;;;;;;;;22.00;41.80;;;;;;1555539;75;1810;-73
2021/10/12 11:53:17;;;;;;;;;;;22.00;41.80;;;;;;1567028;75;776;-72
2021/10/12 11:55:26;;;;;;;;;;;22.00;41.80;;;;;;1565301;75;1917;-72
2021/10/12 11:57:28;;;;;;;;;;;22.00;41.80;;;;;;1571833;75;731;-73
2021/10/12 11:59:37;;;;;;;;;;;22.10;41.90;;;;;;1566082;75;1932;-73
2021/10/12 12:01:41;;;;;;;;;;;22.10;41.90;;;;;;1565863;75;1294;-71
2021/10/12 12:03:43;;;;;;;;;;;22.00;41.80;;;;;;1565950;75;1497;-72
2021/10/12 12:05:51;;;;;;;;;;;22.00;41.80;;;;;;1566236;75;739;-73
2021/10/12 12:07:53;;;;;;;;;;;22.00;41.80;;;;;;1564938;75;768;-72
2021/10/12 12:09:55;;;;;;;;;;;22.10;41.90;;;;;;1565916;75;778;-72
2021/10/12 12:11:56;;;;;;;;;;;22.00;41.80;;;;;;1565229;75;1196;-73